Time;durP1;ratioP1;P1;durP2;ratioP2;P2;SDS_P1;SDS_P2;PMS_P1;PMS_P2;Temp;Humidity;BMP_temperature;BMP_pressure;BME280_temperature;BME280_humidity;BME280_pressure;Samples;Min_cycle;Max_cycle;Signal;HPM_P1;HPM_P2
2022/05/27 00:01:27;;;;;;;14.10;3.90;;;17.70;90.50;;;;;;5102155;28;20051;-70
2022/05/27 00:03:56;;;;;;;13.93;3.90;;;17.70;90.50;;;;;;5086308;28;20502;-68
2022/05/27 00:06:22;;;;;;;15.30;3.88;;;17.70;90.60;;;;;;5102710;28;20019;-71
2022/05/27 00:08:49;;;;;;;12.48;5.38;;;17.70;90.60;;;;;;5095503;28;20126;-72
2022/05/27 00:11:15;;;;;;;10.25;3.72;;;17.70;90.60;;;;;;5098429;28;20648;-71
2022/05/27 00:13:42;;;;;;;10.10;3.28;;;17.70;90.60;;;;;;5104028;28;20522;-70
2022/05/27 00:16:10;;;;;;;11.18;3.38;;;17.70;90.60;;;;;;5098803;28;20019;-72
2022/05/27 00:18:36;;;;;;;9.50;3.22;;;17.70;90.60;;;;;;5107165;28;20100;-71
2022/05/27 00:21:03;;;;;;;15.93;3.85;;;17.70;90.60;;;;;;5104546;28;20023;-72
2022/05/27 00:23:31;;;;;;;10.30;3.47;;;17.70;90.60;;;;;;5104644;28;20024;-72
2022/05/27 00:25:57;;;;;;;10.38;3.10;;;17.60;90.60;;;;;;5098643;28;20085;-69
2022/05/27 00:28:24;;;;;;;10.50;3.08;;;17.60;90.60;;;;;;5102744;28;20007;-69
2022/05/27 00:30:52;;;;;;;13.55;3.85;;;17.70;90.60;;;;;;5107528;28;20047;-68
2022/05/27 00:33:18;;;;;;;16.40;3.75;;;17.60;90.50;;;;;;5101592;28;20051;-67
2022/05/27 00:35:45;;;;;;;18.85;3.85;;;17.60;90.50;;;;;;5104154;28;20339;-68
2022/05/27 00:38:12;;;;;;;11.88;3.22;;;17.70;90.70;;;;;;5102269;28;20515;-68
2022/05/27 00:40:44;;;;;;;21.58;3.85;;;17.70;91.00;;;;;;5099133;28;20032;-67
2022/05/27 00:43:13;;;;;;;14.25;3.72;;;17.70;90.90;;;;;;5102687;28;20020;-68
2022/05/27 00:45:42;;;;;;;10.25;3.47;;;17.70;91.10;;;;;;5101245;28;20042;-68
2022/05/27 00:48:20;;;;;;;9.57;2.75;;;17.70;91.20;;;;;;5102385;28;20020;-68
2022/05/27 00:50:49;;;;;;;13.38;3.78;;;17.70;91.00;;;;;;5103545;28;20034;-67
2022/05/27 00:53:35;;;;;;;5.93;2.40;;;17.70;90.90;;;;;;5105412;28;20523;-68
2022/05/27 00:56:05;;;;;;;6.18;2.97;;;17.70;90.90;;;;;;5105586;28;20469;-68
2022/05/27 00:58:39;;;;;;;10.48;2.50;;;17.60;90.80;;;;;;5098754;28;20058;-67
2022/05/27 01:01:06;;;;;;;9.67;2.37;;;17.60;90.70;;;;;;5098951;28;20495;-67
2022/05/27 01:03:33;;;;;;;8.75;2.33;;;17.60;90.70;;;;;;5086525;28;20596;-68
2022/05/27 01:05:59;;;;;;;4.13;2.15;;;17.60;90.60;;;;;;5100333;28;20012;-68
2022/05/27 01:08:29;;;;;;;6.63;2.42;;;17.60;90.60;;;;;;5100190;28;20024;-68
2022/05/27 01:11:20;;;;;;;9.60;2.78;;;17.60;90.60;;;;;;5104886;28;20011;-70
2022/05/27 01:13:55;;;;;;;10.05;2.92;;;17.60;90.60;;;;;;5106451;28;20542;-68
2022/05/27 01:16:31;;;;;;;;;;;17.60;90.60;;;;;;5105355;28;20098;-68
2022/05/27 01:22:39;;;;;;;6.13;2.40;;;17.60;90.50;;;;;;5101220;28;20051;-68
2022/05/27 01:25:43;;;;;;;8.50;3.00;;;17.60;90.50;;;;;;5100222;28;20406;-68
2022/05/27 01:28:40;;;;;;;11.57;3.65;;;17.60;90.40;;;;;;5102529;28;20095;-71
2022/05/27 01:31:36;;;;;;;11.75;3.33;;;17.50;90.40;;;;;;5105095;28;20015;-68
2022/05/27 01:34:44;;;;;;;13.55;3.35;;;17.50;90.50;;;;;;5108420;28;20526;-68
2022/05/27 01:37:20;;;;;;;9.13;3.33;;;17.60;90.50;;;;;;5044473;28;20047;-67
2022/05/27 01:39:59;;;;;;;14.88;3.88;;;17.50;90.50;;;;;;5101328;28;20074;-71
2022/05/27 01:42:56;;;;;;;14.80;4.80;;;17.50;90.50;;;;;;5104799;28;20166;-70
2022/05/27 01:45:38;;;;;;;8.30;3.47;;;17.50;90.50;;;;;;5106696;28;20044;-68
2022/05/27 01:48:27;;;;;;;14.75;4.18;;;17.50;90.50;;;;;;5105731;28;20691;-67
2022/05/27 01:51:09;;;;;;;9.45;3.30;;;17.50;90.50;;;;;;5108070;28;20027;-68
2022/05/27 01:53:47;;;;;;;20.83;3.85;;;17.50;90.50;;;;;;5100294;28;20097;-72
2022/05/27 01:56:19;;;;;;;14.15;4.50;;;17.50;90.50;;;;;;5099745;28;20468;-72
2022/05/27 01:59:11;;;;;;;15.40;5.63;;;17.50;90.60;;;;;;5100509;28;20042;-71
2022/05/27 02:01:43;;;;;;;12.02;4.90;;;17.40;90.70;;;;;;5093625;28;20059;-73
2022/05/27 02:04:20;;;;;;;23.45;7.07;;;17.40;90.70;;;;;;5105265;28;20057;-71
2022/05/27 02:07:00;;;;;;;14.30;5.18;;;17.50;90.70;;;;;;5101142;28;20059;-71
2022/05/27 02:09:41;;;;;;;19.70;8.10;;;17.40;90.70;;;;;;5100992;28;20024;-72
2022/05/27 02:12:22;;;;;;;23.58;11.00;;;17.40;90.70;;;;;;5104193;28;20016;-70
2022/05/27 02:14:56;;;;;;;26.17;11.13;;;17.50;90.80;;;;;;5097792;28;20062;-72
2022/05/27 02:17:34;;;;;;;22.00;11.95;;;17.40;90.80;;;;;;5079916;28;20028;-71
2022/05/27 02:20:16;;;;;;;25.92;12.02;;;17.40;90.80;;;;;;5102314;28;20490;-68
2022/05/27 02:22:49;;;;;;;31.88;13.02;;;17.40;90.80;;;;;;5104926;28;20035;-69
2022/05/27 02:25:34;;;;;;;16.00;11.45;;;17.40;90.80;;;;;;5099153;28;20019;-72
2022/05/27 02:28:15;;;;;;;25.95;11.15;;;17.40;90.70;;;;;;5103807;28;20027;-71
2022/05/27 02:30:47;;;;;;;20.73;10.63;;;17.40;90.70;;;;;;5102698;28;20043;-71
2022/05/27 02:36:06;;;;;;;19.73;9.85;;;17.40;90.60;;;;;;5100639;28;20038;-70
2022/05/27 02:38:33;;;;;;;20.58;10.18;;;17.40;90.50;;;;;;5102942;28;20020;-72
2022/05/27 02:41:34;;;;;;;19.42;8.40;;;17.40;90.60;;;;;;5104833;28;20053;-72
2022/05/27 02:44:15;;;;;;;20.38;8.60;;;17.40;90.70;;;;;;5101251;28;20048;-72
2022/05/27 02:46:45;;;;;;;15.98;7.40;;;17.30;90.70;;;;;;5101264;28;20045;-72
2022/05/27 02:49:46;;;;;;;19.00;8.15;;;17.40;90.60;;;;;;5105190;28;20102;-70
2022/05/27 02:52:37;;;;;;;18.48;7.55;;;17.30;90.40;;;;;;5102307;28;20023;-71
2022/05/27 02:55:40;;;;;;;13.68;6.20;;;17.30;90.40;;;;;;5101332;28;20483;-69
2022/05/27 02:58:07;;;;;;;18.88;6.18;;;17.30;90.20;;;;;;5101374;28;20433;-69
2022/05/27 03:00:36;;;;;;;9.40;6.35;;;17.30;90.20;;;;;;5103495;28;20020;-72
2022/05/27 03:03:03;;;;;;;14.50;6.82;;;17.20;90.10;;;;;;5105612;28;20026;-70
2022/05/27 03:05:54;;;;;;;12.15;6.20;;;17.20;90.00;;;;;;5101361;28;20024;-69
2022/05/27 03:08:23;;;;;;;10.02;5.57;;;17.20;89.90;;;;;;5100624;28;20027;-68
2022/05/27 03:11:00;;;;;;;11.27;4.32;;;17.20;89.70;;;;;;5104683;28;20032;-68
2022/05/27 03:14:09;;;;;;;14.65;5.13;;;17.10;89.60;;;;;;5104419;28;20124;-70
2022/05/27 03:16:35;;;;;;;16.65;10.38;;;17.10;90.10;;;;;;5102427;28;20027;-72
2022/05/27 03:19:18;;;;;;;18.00;13.93;;;17.10;89.60;;;;;;5100068;28;20039;-71
2022/05/27 03:22:09;;;;;;;21.88;10.90;;;17.10;89.50;;;;;;5097597;28;20031;-69
2022/05/27 03:24:54;;;;;;;9.82;6.30;;;17.20;89.50;;;;;;5097256;28;20078;-68
2022/05/27 03:27:26;;;;;;;;;;;17.10;89.30;;;;;;5102156;28;20024;-71
2022/05/27 03:30:05;;;;;;;8.20;3.00;;;17.10;89.20;;;;;;5100300;28;19918;-70
2022/05/27 03:32:41;;;;;;;7.15;2.88;;;17.10;89.00;;;;;;5103989;28;20020;-71
2022/05/27 03:35:40;;;;;;;3.88;2.22;;;17.10;88.90;;;;;;5100111;28;20035;-71
2022/05/27 03:38:23;;;;;;;5.63;2.63;;;17.10;88.80;;;;;;5051617;28;20032;-72
2022/05/27 03:41:29;;;;;;;4.22;2.10;;;17.00;88.50;;;;;;5103032;28;20107;-69
2022/05/27 03:44:35;;;;;;;6.32;2.47;;;17.00;88.30;;;;;;5101514;28;20044;-71
2022/05/27 03:47:41;;;;;;;4.25;1.67;;;17.00;88.20;;;;;;5075876;28;20509;-72
2022/05/27 03:50:47;;;;;;;3.97;2.20;;;16.90;87.90;;;;;;5100570;28;20019;-71
2022/05/27 03:54:05;;;;;;;3.42;2.00;;;16.90;87.80;;;;;;5102177;28;20019;-71
2022/05/27 03:57:14;;;;;;;2.42;2.13;;;16.90;87.70;;;;;;5101667;28;20016;-72
2022/05/27 04:00:20;;;;;;;7.05;3.03;;;16.90;87.50;;;;;;5104259;28;20036;-72
2022/05/27 04:03:26;;;;;;;7.15;2.60;;;16.80;87.20;;;;;;5100285;28;20055;-70
2022/05/27 04:06:32;;;;;;;6.65;2.47;;;16.80;87.10;;;;;;5097966;28;20441;-70
2022/05/27 04:09:38;;;;;;;8.05;2.58;;;16.80;87.20;;;;;;5093633;28;20023;-74
2022/05/27 04:12:44;;;;;;;5.78;2.10;;;16.70;87.20;;;;;;5103955;28;20040;-72
2022/05/27 04:15:11;;;;;;;7.70;2.25;;;16.70;87.20;;;;;;5100613;28;20053;-73
2022/05/27 04:17:37;;;;;;;8.32;2.20;;;16.70;87.10;;;;;;5099482;28;20032;-72
2022/05/27 04:20:09;;;;;;;8.32;2.50;;;16.60;87.30;;;;;;5104933;28;20024;-75
2022/05/27 04:22:36;;;;;;;3.88;1.98;;;16.60;87.50;;;;;;5101078;28;20048;-72
2022/05/27 04:25:12;;;;;;;3.38;2.35;;;16.60;87.40;;;;;;5098271;28;20029;-73
2022/05/27 04:27:39;;;;;;;3.22;2.00;;;16.60;87.30;;;;;;5083292;28;20035;-72
2022/05/27 04:30:07;;;;;;;11.25;10.13;;;16.60;87.30;;;;;;5084678;28;20034;-72
2022/05/27 04:32:41;;;;;;;18.73;14.05;;;16.60;87.30;;;;;;5094772;28;20058;-73
2022/05/27 04:35:10;;;;;;;19.77;14.70;;;16.60;87.40;;;;;;5102917;28;20027;-75
2022/05/27 04:37:36;;;;;;;11.93;8.57;;;16.60;87.20;;;;;;5102536;28;20352;-73
2022/05/27 04:40:04;;;;;;;6.40;4.30;;;16.60;87.10;;;;;;5100893;28;20030;-72
2022/05/27 04:42:31;;;;;;;6.90;2.60;;;16.60;86.70;;;;;;5102435;28;20497;-72
2022/05/27 04:45:00;;;;;;;7.18;2.50;;;16.50;86.90;;;;;;5097667;28;20128;-71
2022/05/27 04:47:27;;;;;;;7.05;3.35;;;16.50;86.90;;;;;;5101990;28;20038;-72
2022/05/27 04:49:56;;;;;;;11.10;3.85;;;16.50;86.70;;;;;;5101553;28;20051;-72
2022/05/27 04:52:25;;;;;;;6.18;4.15;;;16.50;86.50;;;;;;5102736;28;20544;-72
2022/05/27 04:54:53;;;;;;;7.45;4.15;;;16.50;86.30;;;;;;5102518;28;20043;-66
2022/05/27 04:57:25;;;;;;;10.25;5.90;;;16.50;86.30;;;;;;5102942;28;20024;-66
2022/05/27 04:59:52;;;;;;;10.02;4.90;;;16.50;86.00;;;;;;5101791;28;20034;-68
2022/05/27 05:02:23;;;;;;;11.60;5.60;;;16.50;85.90;;;;;;5102536;28;20012;-70
2022/05/27 05:04:50;;;;;;;7.90;4.80;;;16.40;85.50;;;;;;5102583;28;20035;-66
2022/05/27 05:07:22;;;;;;;10.05;5.25;;;16.40;85.20;;;;;;5097023;28;20016;-72
2022/05/27 05:09:48;;;;;;;7.18;4.82;;;16.40;85.00;;;;;;5099957;28;20028;-67
2022/05/27 05:12:15;;;;;;;6.10;4.85;;;16.40;84.60;;;;;;5103019;28;20012;-71
2022/05/27 05:14:42;;;;;;;8.25;5.47;;;16.30;84.40;;;;;;5100871;28;20857;-68
2022/05/27 05:17:08;;;;;;;7.70;6.13;;;16.30;84.30;;;;;;5103817;28;20116;-72
2022/05/27 05:19:36;;;;;;;6.53;5.57;;;16.30;84.00;;;;;;5104463;28;20467;-66
2022/05/27 05:22:02;;;;;;;12.32;6.65;;;16.20;83.90;;;;;;5085639;28;20019;-72
2022/05/27 05:24:29;;;;;;;11.98;6.82;;;16.20;83.90;;;;;;5099788;28;20085;-66
2022/05/27 05:26:56;;;;;;;12.32;6.13;;;16.20;83.90;;;;;;5099221;28;20024;-67
2022/05/27 05:29:22;;;;;;;8.68;5.65;;;16.20;83.80;;;;;;5100647;28;20379;-65
2022/05/27 05:31:48;;;;;;;14.98;6.47;;;16.20;83.60;;;;;;5096492;28;20429;-65
2022/05/27 05:34:15;;;;;;;8.82;5.50;;;16.10;83.50;;;;;;5101309;28;20059;-67
2022/05/27 05:36:42;;;;;;;9.20;6.70;;;16.20;83.50;;;;;;5100799;28;20065;-68
2022/05/27 05:39:08;;;;;;;10.95;7.15;;;16.10;83.40;;;;;;5102686;28;20556;-65
2022/05/27 05:41:38;;;;;;;11.20;7.82;;;16.10;83.30;;;;;;5097980;28;20051;-66
2022/05/27 05:44:06;;;;;;;13.38;8.30;;;16.10;83.30;;;;;;5104668;28;20119;-65
2022/05/27 05:46:36;;;;;;;12.52;10.68;;;16.10;83.30;;;;;;5095815;28;20024;-66
2022/05/27 05:49:05;;;;;;;10.85;8.68;;;16.10;83.30;;;;;;5097405;28;20429;-64
2022/05/27 05:51:32;;;;;;;18.58;8.25;;;16.00;83.20;;;;;;5099475;28;20016;-66
2022/05/27 05:53:58;;;;;;;17.80;8.50;;;16.10;83.30;;;;;;5102780;28;20620;-65
2022/05/27 05:56:25;;;;;;;12.57;7.43;;;16.00;83.40;;;;;;5106147;28;20348;-65
2022/05/27 05:58:52;;;;;;;12.55;6.80;;;16.00;83.70;;;;;;5107565;28;20020;-66
2022/05/27 06:01:19;;;;;;;10.32;6.45;;;16.00;83.90;;;;;;5104771;28;20057;-65
2022/05/27 06:03:45;;;;;;;8.57;6.18;;;16.00;84.10;;;;;;5105914;28;20531;-68
2022/05/27 06:06:12;;;;;;;11.90;5.20;;;16.00;84.10;;;;;;5103070;28;20020;-65
2022/05/27 06:08:39;;;;;;;7.97;5.05;;;16.00;84.20;;;;;;5103173;28;20512;-65
2022/05/27 06:11:08;;;;;;;8.45;5.75;;;15.90;84.20;;;;;;5101432;28;20119;-68
2022/05/27 06:13:41;;;;;;;7.70;6.00;;;15.90;84.30;;;;;;5104749;28;20028;-68
2022/05/27 06:16:09;;;;;;;8.95;6.68;;;15.90;84.30;;;;;;5100750;28;20111;-68
2022/05/27 06:18:36;;;;;;;10.63;7.80;;;16.00;84.50;;;;;;5104945;28;20027;-69
2022/05/27 06:21:04;;;;;;;10.55;6.38;;;15.90;84.40;;;;;;5104095;28;20024;-68
2022/05/27 06:23:30;;;;;;;27.23;7.72;;;16.00;84.50;;;;;;5103974;28;20034;-70
2022/05/27 06:25:59;;;;;;;13.00;6.68;;;15.90;84.60;;;;;;5103872;28;20028;-68
2022/05/27 06:36:44;;;;;;;14.15;6.63;;;16.00;86.00;;;;;;5105708;28;20039;-71
2022/05/27 06:39:10;;;;;;;17.67;7.82;;;16.00;86.10;;;;;;5106303;28;20024;-68
2022/05/27 06:41:37;;;;;;;13.15;6.82;;;16.10;86.20;;;;;;5086119;28;20020;-67
2022/05/27 06:44:05;;;;;;;13.50;7.97;;;16.00;86.20;;;;;;5103912;28;20042;-67
2022/05/27 06:46:32;;;;;;;16.90;7.03;;;16.10;86.40;;;;;;5103143;28;20024;-69
2022/05/27 06:48:59;;;;;;;12.82;7.95;;;16.10;86.50;;;;;;5106685;28;20028;-69
2022/05/27 06:51:26;;;;;;;11.65;8.02;;;16.10;86.70;;;;;;5104483;28;20008;-67
2022/05/27 06:53:53;;;;;;;21.05;9.90;;;16.10;86.80;;;;;;5087652;28;20040;-68
2022/05/27 06:56:21;;;;;;;15.98;9.55;;;16.10;87.00;;;;;;5107697;28;20077;-67
2022/05/27 06:58:48;;;;;;;17.65;9.63;;;16.10;87.30;;;;;;5100150;28;20024;-70
2022/05/27 07:01:14;;;;;;;20.13;9.77;;;16.10;87.50;;;;;;5101827;28;20020;-70
2022/05/27 07:03:41;;;;;;;13.85;7.70;;;16.20;87.80;;;;;;5103372;28;20026;-67
2022/05/27 07:06:10;;;;;;;15.48;8.57;;;16.20;87.90;;;;;;5100856;28;20451;-68
2022/05/27 07:08:37;;;;;;;20.65;10.57;;;16.20;88.10;;;;;;5100552;28;20019;-69
2022/05/27 07:11:04;;;;;;;11.73;8.65;;;16.20;88.20;;;;;;5104991;28;20475;-68
2022/05/27 07:13:32;;;;;;;23.85;10.10;;;16.20;88.40;;;;;;5103798;28;20024;-68
2022/05/27 07:15:59;;;;;;;18.83;9.15;;;16.30;88.70;;;;;;5102866;28;20019;-71
2022/05/27 07:18:25;;;;;;;22.15;10.13;;;16.30;88.80;;;;;;5105046;28;20031;-71
2022/05/27 07:21:00;;;;;;;34.28;9.70;;;16.30;89.00;;;;;;5103926;28;20803;-66
2022/05/27 07:23:27;;;;;;;24.50;8.80;;;16.30;89.10;;;;;;5102234;28;20043;-66
2022/05/27 07:25:54;;;;;;;30.77;10.73;;;16.40;89.40;;;;;;5103694;28;20447;-67
2022/05/27 07:28:20;;;;;;;28.95;12.50;;;16.40;89.60;;;;;;5096629;28;20042;-70
2022/05/27 07:30:47;;;;;;;20.90;10.65;;;16.40;89.60;;;;;;5107225;28;20420;-68
2022/05/27 07:33:13;;;;;;;26.02;11.82;;;16.40;89.40;;;;;;5099815;28;20016;-65
2022/05/27 07:35:40;;;;;;;22.45;11.95;;;16.50;89.40;;;;;;5102566;28;20024;-69
2022/05/27 07:38:06;;;;;;;27.95;14.23;;;16.50;89.30;;;;;;5099711;28;20032;-71
2022/05/27 07:40:33;;;;;;;32.65;14.25;;;16.50;89.30;;;;;;5106067;28;20020;-71
2022/05/27 07:42:59;;;;;;;21.17;14.52;;;16.50;89.20;;;;;;5100060;28;20111;-70
2022/05/27 07:45:27;;;;;;;26.27;14.50;;;16.50;89.30;;;;;;5100669;28;20059;-72
2022/05/27 07:47:55;;;;;;;25.13;13.65;;;16.60;89.30;;;;;;5083735;28;20035;-70
2022/05/27 07:50:22;;;;;;;22.90;12.15;;;16.60;89.40;;;;;;5102362;28;20111;-69
2022/05/27 07:52:49;;;;;;;22.23;13.68;;;16.60;89.40;;;;;;5109108;28;20008;-69
2022/05/27 07:55:15;;;;;;;27.85;12.55;;;16.70;89.60;;;;;;5100080;28;20038;-67
2022/05/27 07:57:44;;;;;;;22.98;10.48;;;16.70;89.70;;;;;;5098142;28;20024;-66
2022/05/27 08:00:14;;;;;;;24.25;12.07;;;16.70;89.90;;;;;;5102811;28;20026;-69
2022/05/27 08:02:41;;;;;;;23.75;11.98;;;16.70;90.10;;;;;;5102906;28;20031;-70
2022/05/27 08:05:16;;;;;;;29.15;9.80;;;16.80;90.50;;;;;;5103349;28;20027;-68
2022/05/27 08:07:43;;;;;;;;;;;16.80;90.30;;;;;;5098952;28;20473;-67
2022/05/27 08:10:12;;;;;;;18.80;9.60;;;16.80;90.40;;;;;;5100179;28;20044;-67
2022/05/27 08:12:40;;;;;;;16.35;8.75;;;16.90;90.60;;;;;;5102604;28;20099;-72
2022/05/27 08:15:08;;;;;;;16.77;8.05;;;16.90;90.60;;;;;;5104214;28;20046;-71
2022/05/27 08:17:36;;;;;;;15.20;7.97;;;17.00;90.80;;;;;;5099889;28;20379;-67
2022/05/27 08:20:05;;;;;;;16.98;8.25;;;17.00;90.80;;;;;;5103362;28;20077;-73
2022/05/27 08:22:31;;;;;;;13.38;7.53;;;17.10;91.00;;;;;;5102307;28;20459;-73
2022/05/27 08:24:58;;;;;;;10.55;6.70;;;17.10;91.00;;;;;;5101491;28;20351;-71
2022/05/27 08:27:24;;;;;;;8.98;6.13;;;17.10;91.10;;;;;;5101649;28;20016;-73
2022/05/27 08:29:51;;;;;;;9.13;5.38;;;17.10;91.30;;;;;;5101994;28;20023;-72
2022/05/27 08:32:18;;;;;;;14.18;5.80;;;17.10;91.30;;;;;;5103191;28;20008;-72
2022/05/27 08:40:27;;;;;;;25.42;8.48;;;17.30;91.40;;;;;;5102724;28;20039;-73
2022/05/27 08:43:30;;;;;;;13.65;6.30;;;17.30;91.50;;;;;;5102303;28;20042;-68
2022/05/27 08:46:31;;;;;;;19.88;7.68;;;17.40;91.50;;;;;;5101595;28;20063;-72
2022/05/27 08:49:07;;;;;;;14.38;7.20;;;17.40;91.50;;;;;;5100032;28;20026;-70
2022/05/27 08:51:41;;;;;;;10.13;5.05;;;17.50;91.50;;;;;;5099703;28;20091;-71
2022/05/27 08:54:15;;;;;;;13.15;7.15;;;17.50;91.50;;;;;;5099957;28;20414;-72
2022/05/27 08:59:47;;;;;;;18.40;6.95;;;17.60;91.50;;;;;;5100365;28;20133;-72
2022/05/27 09:02:29;;;;;;;14.52;7.60;;;17.60;91.50;;;;;;5098034;28;20490;-71
2022/05/27 09:05:42;;;;;;;28.48;9.60;;;17.70;91.50;;;;;;5101484;28;20023;-73
2022/05/27 09:08:25;;;;;;;28.42;7.82;;;17.70;91.50;;;;;;5065622;28;20068;-70
2022/05/27 09:11:30;;;;;;;23.92;9.02;;;17.80;91.50;;;;;;5102675;28;20016;-70
2022/05/27 09:14:07;;;;;;;16.13;7.97;;;17.80;91.40;;;;;;5103885;28;20109;-70
2022/05/27 09:16:56;;;;;;;20.05;9.38;;;17.90;91.40;;;;;;5102290;28;20052;-67
2022/05/27 09:19:49;;;;;;;29.25;10.57;;;18.00;91.30;;;;;;5101491;28;20024;-70
2022/05/27 09:22:44;;;;;;;24.02;10.63;;;18.00;91.10;;;;;;5069689;28;20044;-68
2022/05/27 09:25:47;;;;;;;25.13;12.02;;;18.00;91.00;;;;;;5097159;28;20020;-70
2022/05/27 09:28:27;;;;;;;22.98;11.10;;;18.10;90.90;;;;;;5099686;28;20035;-71
2022/05/27 09:30:57;;;;;;;21.77;10.25;;;18.20;90.80;;;;;;5104263;28;20413;-72
2022/05/27 09:33:26;;;;;;;21.88;10.95;;;18.20;90.70;;;;;;5108586;28;20027;-68
2022/05/27 09:36:04;;;;;;;20.77;11.73;;;18.30;90.60;;;;;;5099807;28;20040;-69
2022/05/27 09:38:34;;;;;;;23.63;10.68;;;18.30;90.40;;;;;;5103877;28;20030;-73
2022/05/27 09:41:23;;;;;;;20.95;11.30;;;18.40;90.30;;;;;;5104039;28;20038;-70
2022/05/27 09:44:18;;;;;;;23.50;12.10;;;18.40;90.20;;;;;;5102998;28;20483;-71
2022/05/27 09:46:45;;;;;;;25.60;13.35;;;18.50;90.00;;;;;;5073670;28;20039;-71
2022/05/27 09:49:12;;;;;;;29.48;12.25;;;18.50;90.10;;;;;;5108540;28;20035;-69
2022/05/27 09:51:38;;;;;;;19.40;12.70;;;18.60;90.10;;;;;;5102993;28;20018;-70
2022/05/27 09:54:24;;;;;;;25.58;11.10;;;18.70;90.00;;;;;;5103020;28;20021;-69
2022/05/27 09:57:02;;;;;;;20.20;11.07;;;18.80;90.00;;;;;;5107550;28;20043;-67
2022/05/27 09:59:42;;;;;;;24.70;10.63;;;18.90;89.80;;;;;;5107360;28;20057;-70
2022/05/27 10:02:22;;;;;;;13.30;10.10;;;18.90;89.60;;;;;;5099762;28;20031;-71
2022/05/27 10:05:07;;;;;;;16.20;8.90;;;19.00;89.10;;;;;;5103794;28;20024;-70
2022/05/27 10:07:42;;;;;;;13.70;8.98;;;19.10;89.00;;;;;;5088180;28;20150;-66
2022/05/27 10:10:31;;;;;;;15.35;8.20;;;19.10;88.60;;;;;;5103234;28;20480;-69
2022/05/27 10:13:13;;;;;;;14.40;9.48;;;19.20;88.20;;;;;;5107322;28;20033;-65
2022/05/27 10:15:40;;;;;;;12.85;8.27;;;19.30;87.80;;;;;;5104442;28;20403;-66
2022/05/27 10:18:21;;;;;;;14.00;7.30;;;19.40;87.10;;;;;;5108957;28;20022;-67
2022/05/27 10:21:05;;;;;;;16.73;8.60;;;19.40;86.40;;;;;;5103396;28;20036;-66
2022/05/27 10:23:37;;;;;;;15.98;8.70;;;19.50;85.70;;;;;;5104016;28;20048;-67
2022/05/27 10:26:27;;;;;;;14.90;8.02;;;19.60;85.70;;;;;;5107183;28;20177;-68
2022/05/27 10:29:10;;;;;;;21.17;8.77;;;19.60;85.60;;;;;;5107191;28;20102;-66
2022/05/27 10:31:47;;;;;;;18.13;8.80;;;19.70;85.10;;;;;;5108165;28;20020;-67
2022/05/27 10:34:36;;;;;;;22.58;9.02;;;19.80;84.70;;;;;;5099123;28;20019;-69
2022/05/27 10:37:06;;;;;;;16.38;9.10;;;19.90;84.30;;;;;;5106955;28;20059;-69
2022/05/27 10:39:53;;;;;;;21.52;9.10;;;19.90;84.20;;;;;;5100523;28;20046;-70
2022/05/27 10:42:43;;;;;;;23.63;9.20;;;20.00;84.10;;;;;;5103073;28;20024;-66
2022/05/27 10:45:19;;;;;;;21.88;8.15;;;20.10;84.20;;;;;;5104552;28;20048;-69
2022/05/27 10:48:04;;;;;;;18.23;9.13;;;20.10;84.20;;;;;;5107120;28;20012;-66
2022/05/27 10:50:33;;;;;;;14.63;7.38;;;20.20;84.10;;;;;;5103381;28;20483;-66
2022/05/27 10:53:30;;;;;;;15.75;6.07;;;20.30;84.10;;;;;;5101716;28;20020;-65
2022/05/27 10:56:11;;;;;;;14.45;7.65;;;20.40;83.90;;;;;;5105357;28;20069;-67
2022/05/27 11:04:49;;;;;;;12.52;6.78;;;20.50;81.80;;;;;;5089298;28;20097;-66
2022/05/27 11:07:22;;;;;;;12.75;6.78;;;20.60;81.40;;;;;;5098977;28;20481;-66
2022/05/27 11:10:20;;;;;;;22.95;7.68;;;20.60;80.80;;;;;;5105113;28;20382;-66
2022/05/27 11:16:12;;;;;;;20.38;6.10;;;20.80;80.40;;;;;;5101296;28;20035;-67
2022/05/27 11:18:58;;;;;;;13.63;5.95;;;20.90;80.10;;;;;;5065961;28;20035;-68
2022/05/27 11:21:44;;;;;;;11.95;6.50;;;21.00;79.60;;;;;;5103863;28;20028;-68
2022/05/27 11:24:24;;;;;;;13.27;7.90;;;21.10;79.40;;;;;;5105010;28;20046;-66
2022/05/27 11:27:12;;;;;;;16.67;8.20;;;21.10;79.20;;;;;;5104717;28;20019;-68
2022/05/27 11:30:06;;;;;;;19.33;9.55;;;21.20;79.00;;;;;;5102191;28;20050;-69
2022/05/27 11:32:51;;;;;;;18.85;10.43;;;21.20;78.70;;;;;;5100166;28;20024;-69
2022/05/27 11:35:36;;;;;;;17.50;8.57;;;21.30;78.40;;;;;;5101905;28;20023;-67
2022/05/27 11:38:24;;;;;;;12.57;8.03;;;21.30;78.10;;;;;;5099162;28;20021;-67
2022/05/27 11:41:23;;;;;;;14.07;7.50;;;21.40;77.80;;;;;;5099383;28;20020;-69
2022/05/27 11:44:03;;;;;;;14.00;7.65;;;21.40;77.10;;;;;;5103128;28;20134;-68
2022/05/27 11:46:47;;;;;;;14.50;7.15;;;21.40;76.70;;;;;;5106177;28;20016;-67
2022/05/27 11:49:26;;;;;;;17.33;7.40;;;21.50;76.30;;;;;;5100882;28;20043;-71
2022/05/27 11:52:21;;;;;;;19.20;6.40;;;21.50;76.00;;;;;;5104658;28;20040;-66
2022/05/27 11:55:15;;;;;;;17.40;6.57;;;21.50;76.10;;;;;;5099526;28;20024;-70
2022/05/27 11:58:06;;;;;;;12.20;5.55;;;21.50;74.60;;;;;;5105682;28;20028;-70
2022/05/27 12:00:39;;;;;;;12.38;5.45;;;21.60;74.40;;;;;;5104268;28;20114;-67
2022/05/27 12:03:13;;;;;;;10.40;4.95;;;21.60;74.10;;;;;;5098899;28;20028;-67
2022/05/27 12:05:47;;;;;;;12.50;4.03;;;21.60;73.70;;;;;;5105301;28;20038;-70
2022/05/27 12:08:44;;;;;;;10.50;3.58;;;21.60;72.90;;;;;;5108279;28;20054;-67
2022/05/27 12:11:16;;;;;;;9.68;3.22;;;21.60;72.80;;;;;;5100157;28;20051;-69
2022/05/27 12:14:17;;;;;;;6.28;2.72;;;21.60;72.20;;;;;;5104251;28;20036;-71
2022/05/27 12:16:48;;;;;;;5.18;1.85;;;21.70;72.00;;;;;;5069939;28;20648;-67
2022/05/27 12:19:20;;;;;;;7.30;2.20;;;21.70;71.60;;;;;;5099699;28;20108;-71
2022/05/27 12:21:52;;;;;;;3.13;1.90;;;21.70;70.40;;;;;;5086605;28;20587;-71
2022/05/27 12:24:29;;;;;;;4.55;2.05;;;21.70;69.90;;;;;;5098002;28;20351;-71
2022/05/27 12:26:59;;;;;;;5.78;3.03;;;21.70;70.00;;;;;;5102601;28;20660;-71
2022/05/27 12:29:28;;;;;;;4.80;3.00;;;21.70;69.90;;;;;;5100168;28;20073;-69
2022/05/27 12:31:55;;;;;;;4.13;2.80;;;21.70;70.00;;;;;;5099720;28;20375;-71
2022/05/27 12:34:28;;;;;;;5.03;2.70;;;21.70;70.20;;;;;;5101100;28;20020;-72
2022/05/27 12:37:00;;;;;;;4.65;2.97;;;21.80;69.90;;;;;;5103758;28;21197;-70
2022/05/27 12:39:31;;;;;;;12.18;2.67;;;21.80;70.10;;;;;;5102061;28;20122;-70
2022/05/27 12:42:10;;;;;;;3.67;2.53;;;21.80;70.10;;;;;;5101954;28;20055;-67
2022/05/27 12:44:39;;;;;;;4.85;3.08;;;21.80;69.90;;;;;;5098206;28;20097;-66
2022/05/27 12:47:14;;;;;;;4.97;2.65;;;21.80;69.70;;;;;;5084557;28;20043;-69
2022/05/27 12:49:45;;;;;;;8.98;3.53;;;21.80;69.80;;;;;;5104043;28;20096;-72
2022/05/27 12:52:30;;;;;;;5.30;2.60;;;21.80;69.90;;;;;;5107317;28;20103;-67
2022/05/27 12:54:56;;;;;;;8.93;2.85;;;21.80;70.20;;;;;;5100430;28;20046;-70
2022/05/27 13:03:35;;;;;;;7.93;2.30;;;21.80;70.20;;;;;;5103611;28;20069;-66
2022/05/27 13:06:18;;;;;;;4.88;2.75;;;21.80;70.00;;;;;;5102789;28;20039;-65
2022/05/27 13:08:50;;;;;;;4.60;3.05;;;21.80;69.50;;;;;;5107786;28;20039;-70
2022/05/27 13:11:41;;;;;;;4.70;2.17;;;21.80;69.70;;;;;;5103431;28;20040;-67
2022/05/27 13:14:18;;;;;;;3.65;1.80;;;21.90;69.90;;;;;;5104728;28;20134;-72
2022/05/27 13:17:22;;;;;;;5.40;2.33;;;21.90;69.70;;;;;;5100306;28;20066;-70
2022/05/27 13:20:01;;;;;;;4.70;2.13;;;21.90;69.50;;;;;;5107985;28;20019;-68
2022/05/27 13:23:11;;;;;;;5.43;2.25;;;21.90;69.50;;;;;;5108013;28;20543;-66
2022/05/27 13:25:43;;;;;;;9.50;2.47;;;21.90;69.50;;;;;;5054566;28;20032;-69
2022/05/27 13:28:31;;;;;;;4.97;2.90;;;22.00;69.30;;;;;;5104843;28;20996;-68
2022/05/27 13:31:11;;;;;;;8.43;2.80;;;22.00;69.60;;;;;;5106946;28;20344;-66
2022/05/27 13:33:41;;;;;;;8.35;3.25;;;22.00;69.60;;;;;;5104354;28;20069;-68
2022/05/27 13:36:25;;;;;;;6.78;3.28;;;22.00;69.50;;;;;;5107657;28;20031;-68
2022/05/27 13:39:06;;;;;;;7.72;3.38;;;22.00;69.70;;;;;;5101869;28;20053;-66
2022/05/27 13:41:43;;;;;;;4.75;2.15;;;22.00;69.40;;;;;;5104724;28;20035;-69
2022/05/27 13:44:16;;;;;;;5.07;2.30;;;22.00;68.90;;;;;;5109760;28;20040;-67
2022/05/27 13:46:50;;;;;;;6.70;2.33;;;22.00;68.80;;;;;;5106296;28;20588;-67
2022/05/27 13:49:33;;;;;;;8.93;2.67;;;21.90;68.70;;;;;;5107853;28;20102;-68
2022/05/27 13:52:02;;;;;;;6.50;3.05;;;21.90;68.50;;;;;;5104933;28;20037;-67
2022/05/27 13:54:35;;;;;;;10.45;2.88;;;22.00;68.60;;;;;;5107065;28;20486;-69
2022/05/27 13:57:05;;;;;;;10.07;3.53;;;22.00;68.40;;;;;;5106445;28;20436;-66
2022/05/27 13:59:41;;;;;;;4.45;2.10;;;21.90;68.20;;;;;;5100364;28;20512;-66
2022/05/27 14:02:21;;;;;;;11.93;4.00;;;21.90;68.10;;;;;;5104373;28;20052;-68
2022/05/27 14:05:17;;;;;;;17.27;5.28;;;22.00;68.30;;;;;;5100889;28;20023;-67